Time;durP1;ratioP1;P1;durP2;ratioP2;P2;SDS_P1;SDS_P2;PMS_P1;PMS_P2;Temp;Humidity;BMP_temperature;BMP_pressure;BME280_temperature;BME280_humidity;BME280_pressure;Samples;Min_cycle;Max_cycle;Signal;HPM_P1;HPM_P2
2023/02/24 00:00:50;;;;;;;21.20;13.27;;;23.10;41.10;;;;;;6297827;27;83385;-63
2023/02/24 00:03:50;;;;;;;27.67;14.52;;;23.10;41.00;;;;;;6296309;27;83407;-62
2023/02/24 00:06:51;;;;;;;23.20;13.90;;;23.10;41.10;;;;;;6296196;27;84551;-60
2023/02/24 00:09:51;;;;;;;22.45;13.88;;;23.10;41.10;;;;;;6286151;27;83034;-61
2023/02/24 00:12:52;;;;;;;19.13;12.30;;;23.10;41.20;;;;;;6302510;27;85508;-59
2023/02/24 00:15:53;;;;;;;21.83;13.15;;;23.10;41.30;;;;;;6299987;27;84870;-60
2023/02/24 00:18:53;;;;;;;21.73;13.32;;;23.10;41.30;;;;;;6301047;27;84280;-60
2023/02/24 00:21:54;;;;;;;20.08;12.13;;;23.10;41.20;;;;;;6301937;27;83041;-59
2023/02/24 00:24:54;;;;;;;20.60;11.93;;;23.10;41.30;;;;;;6299707;27;83362;-60
2023/02/24 00:27:55;;;;;;;16.50;11.40;;;23.10;41.30;;;;;;6300011;27;83294;-60
2023/02/24 00:30:55;;;;;;;21.00;11.98;;;23.10;41.30;;;;;;6252461;27;85692;-60
2023/02/24 00:33:56;;;;;;;17.58;11.18;;;23.00;41.20;;;;;;6275644;27;84328;-61
2023/02/24 00:36:57;;;;;;;17.35;11.50;;;23.10;41.20;;;;;;6242705;27;85819;-61
2023/02/24 00:39:57;;;;;;;17.95;11.68;;;23.10;41.20;;;;;;6244621;27;85980;-63
2023/02/24 00:42:58;;;;;;;20.33;10.93;;;23.10;41.30;;;;;;6264084;27;82686;-60
2023/02/24 00:45:59;;;;;;;19.23;11.80;;;23.10;41.40;;;;;;6270251;27;82942;-61
2023/02/24 00:49:04;;;;;;;16.20;10.50;;;23.10;41.40;;;;;;6254245;27;84257;-61
2023/02/24 00:52:05;;;;;;;15.70;10.25;;;23.10;41.30;;;;;;6272023;27;83297;-63
2023/02/24 00:55:12;;;;;;;16.25;10.82;;;23.00;41.20;;;;;;6241482;27;85803;-62
2023/02/24 00:58:13;;;;;;;15.60;10.52;;;23.10;41.30;;;;;;6274788;27;83329;-64
2023/02/24 01:01:13;;;;;;;14.88;10.38;;;23.10;41.20;;;;;;6242544;27;84294;-58
2023/02/24 01:04:14;;;;;;;17.83;10.82;;;23.10;41.90;;;;;;6271095;27;84282;-63
2023/02/24 01:07:17;;;;;;;14.98;9.68;;;23.10;41.30;;;;;;6244195;28;85507;-64
2023/02/24 01:10:19;;;;;;;14.60;9.55;;;23.10;41.20;;;;;;6239940;27;84074;-64
2023/02/24 01:13:20;;;;;;;14.63;10.38;;;23.10;41.20;;;;;;6241061;27;83276;-64
2023/02/24 01:16:20;;;;;;;17.10;11.13;;;23.10;41.30;;;;;;6231719;27;83945;-65
2023/02/24 01:19:21;;;;;;;14.73;9.70;;;23.10;41.30;;;;;;6270203;27;84544;-65
2023/02/24 01:22:22;;;;;;;14.93;9.40;;;23.10;41.20;;;;;;6278636;27;82976;-64
2023/02/24 01:25:23;;;;;;;15.10;9.45;;;23.10;41.20;;;;;;6258819;27;80913;-63
2023/02/24 01:28:23;;;;;;;14.55;9.32;;;23.10;41.30;;;;;;6239747;27;83533;-62
2023/02/24 01:31:24;;;;;;;15.80;9.38;;;23.00;41.20;;;;;;6263397;27;83408;-62
2023/02/24 01:34:25;;;;;;;17.45;9.18;;;23.10;41.30;;;;;;6270460;27;83811;-62
2023/02/24 01:37:26;;;;;;;15.77;9.50;;;23.10;41.30;;;;;;6304000;27;80258;-63
2023/02/24 01:40:27;;;;;;;14.20;9.10;;;23.10;41.30;;;;;;6260516;27;81647;-63
2023/02/24 01:43:27;;;;;;;14.57;9.60;;;23.10;41.30;;;;;;6291053;27;80459;-64
2023/02/24 01:46:28;;;;;;;13.73;9.23;;;23.10;41.20;;;;;;6291453;27;80366;-63
2023/02/24 01:49:28;;;;;;;12.82;9.45;;;23.10;41.30;;;;;;6301967;27;86035;-64
2023/02/24 01:52:29;;;;;;;12.18;8.95;;;23.10;41.20;;;;;;6282721;27;83279;-63
2023/02/24 01:55:30;;;;;;;14.13;9.35;;;23.00;41.20;;;;;;6294938;27;80955;-64
2023/02/24 01:58:32;;;;;;;15.30;9.52;;;23.00;41.20;;;;;;6258878;27;83297;-63
2023/02/24 02:01:39;;;;;;;13.90;9.02;;;23.10;41.20;;;;;;6288903;27;80874;-63
2023/02/24 02:04:41;;;;;;;15.35;9.73;;;23.00;41.20;;;;;;6271057;27;81700;-63
2023/02/24 02:07:42;;;;;;;14.45;9.23;;;23.00;41.20;;;;;;6270753;27;83384;-61
2023/02/24 02:10:45;;;;;;;14.68;9.35;;;23.00;41.20;;;;;;6271143;27;83176;-62
2023/02/24 02:13:49;;;;;;;16.98;9.60;;;23.00;41.20;;;;;;6290569;27;82468;-61
2023/02/24 02:16:50;;;;;;;15.13;9.40;;;23.00;41.20;;;;;;6278129;27;80303;-61
2023/02/24 02:19:51;;;;;;;14.40;9.13;;;23.10;41.20;;;;;;6298146;27;80951;-62
2023/02/24 02:22:53;;;;;;;16.50;9.13;;;23.00;41.20;;;;;;6281912;27;82552;-63
2023/02/24 02:25:54;;;;;;;14.27;8.85;;;23.00;41.20;;;;;;6270587;27;81673;-64
2023/02/24 02:28:55;;;;;;;14.27;9.00;;;23.00;41.20;;;;;;6269445;27;81075;-63
2023/02/24 02:31:56;;;;;;;12.38;8.32;;;23.00;41.20;;;;;;6270755;27;87677;-63
2023/02/24 02:34:56;;;;;;;12.32;7.90;;;23.00;41.20;;;;;;6272040;27;82181;-63
2023/02/24 02:37:57;;;;;;;14.35;8.23;;;23.00;41.30;;;;;;6293144;27;80048;-63
2023/02/24 02:40:59;;;;;;;14.23;8.80;;;23.00;41.30;;;;;;6299610;27;81353;-64
2023/02/24 02:43:59;;;;;;;16.10;9.73;;;23.00;41.20;;;;;;6267281;27;82257;-63
2023/02/24 02:47:02;;;;;;;13.43;8.88;;;23.00;41.30;;;;;;6289672;27;80452;-63
2023/02/24 02:50:06;;;;;;;11.57;8.05;;;23.00;41.30;;;;;;6267604;27;83090;-63
2023/02/24 02:53:07;;;;;;;12.63;8.02;;;23.00;41.20;;;;;;6290544;27;82177;-62
2023/02/24 02:56:08;;;;;;;13.73;8.30;;;23.00;41.30;;;;;;6302448;27;80449;-62
2023/02/24 02:59:11;;;;;;;11.98;8.77;;;23.00;41.30;;;;;;6290001;27;81270;-64
2023/02/24 03:02:12;;;;;;;11.68;7.95;;;23.00;41.40;;;;;;6270228;27;82496;-63
2023/02/24 03:05:16;;;;;;;12.82;7.72;;;23.00;41.30;;;;;;6261787;27;81863;-63
2023/02/24 03:08:17;;;;;;;12.10;8.25;;;23.00;41.30;;;;;;6271751;27;82796;-62
2023/02/24 03:11:18;;;;;;;12.50;7.85;;;23.00;41.30;;;;;;6277106;27;82092;-63
2023/02/24 03:14:18;;;;;;;12.00;7.88;;;23.00;41.40;;;;;;6275993;27;83056;-64
2023/02/24 03:17:20;;;;;;;9.40;6.82;;;23.00;41.50;;;;;;6268659;27;81946;-64
2023/02/24 03:20:21;;;;;;;10.23;7.28;;;23.00;41.40;;;;;;6300472;27;80501;-63
2023/02/24 03:23:24;;;;;;;11.02;7.22;;;23.00;41.40;;;;;;6259209;27;83563;-63
2023/02/24 03:26:27;;;;;;;10.55;6.97;;;23.00;41.30;;;;;;6287379;27;82689;-63
2023/02/24 03:29:29;;;;;;;12.48;7.35;;;23.00;41.40;;;;;;6282625;27;81903;-64
2023/02/24 03:32:31;;;;;;;10.85;6.93;;;23.00;41.40;;;;;;6268207;27;83390;-63
2023/02/24 03:35:33;;;;;;;9.20;6.85;;;23.00;41.30;;;;;;6281889;27;82759;-63
2023/02/24 03:38:37;;;;;;;9.98;7.25;;;23.00;41.30;;;;;;6281328;27;80540;-63
2023/02/24 03:41:39;;;;;;;13.35;7.55;;;23.00;41.40;;;;;;6282526;27;81984;-65
2023/02/24 03:44:40;;;;;;;10.43;7.18;;;23.00;41.90;;;;;;6302397;27;81357;-65
2023/02/24 03:47:41;;;;;;;11.32;7.10;;;23.00;41.40;;;;;;6301791;27;80588;-63
2023/02/24 03:50:42;;;;;;;9.95;7.13;;;23.00;41.40;;;;;;6285351;27;82377;-65
2023/02/24 03:53:53;;;;;;;10.15;7.40;;;23.00;41.50;;;;;;6282982;27;81796;-61
2023/02/24 03:56:56;;;;;;;10.73;6.88;;;23.00;41.40;;;;;;6285129;27;81644;-59
2023/02/24 04:00:25;;;;;;;10.00;7.10;;;23.00;41.40;;;;;;6283749;27;83525;-62
2023/02/24 04:03:22;;;;;;;10.05;6.70;;;23.00;41.60;;;;;;6285883;27;87428;-66
2023/02/24 04:06:23;;;;;;;10.10;6.40;;;23.00;41.60;;;;;;6281163;27;81797;-61
2023/02/24 04:09:24;;;;;;;10.00;6.38;;;23.00;41.70;;;;;;6297842;27;81289;-61
2023/02/24 04:12:33;;;;;;;9.55;6.22;;;23.00;42.00;;;;;;6275194;27;82574;-61
2023/02/24 04:15:38;;;;;;;11.23;6.10;;;23.00;42.00;;;;;;6286391;27;83020;-60
2023/02/24 04:18:40;;;;;;;9.38;6.18;;;23.00;41.90;;;;;;6273295;27;81570;-60
2023/02/24 04:21:41;;;;;;;12.32;6.45;;;23.00;42.00;;;;;;6282307;27;83596;-59
2023/02/24 04:24:44;;;;;;;9.82;6.90;;;23.00;42.00;;;;;;6277339;27;83133;-60
2023/02/24 04:27:46;;;;;;;11.98;6.80;;;23.00;42.10;;;;;;6278269;27;82851;-60
2023/02/24 04:30:50;;;;;;;9.33;6.57;;;23.00;42.20;;;;;;6274863;27;83356;-59
2023/02/24 04:33:52;;;;;;;9.80;6.47;;;23.10;42.20;;;;;;6265051;27;83642;-60
2023/02/24 04:36:58;;;;;;;;;;;23.10;42.30;;;;;;6273097;27;82701;-59
2023/02/24 04:39:59;;;;;;;10.02;6.03;;;23.10;42.20;;;;;;6282039;27;82780;-59
2023/02/24 04:43:02;;;;;;;11.57;7.03;;;23.20;42.30;;;;;;6270091;27;83055;-61
2023/02/24 04:46:06;;;;;;;10.13;6.70;;;23.20;42.60;;;;;;6274937;27;80481;-61
2023/02/24 04:49:07;;;;;;;9.45;6.53;;;23.10;42.50;;;;;;6270511;27;81608;-61
2023/02/24 04:52:10;;;;;;;10.38;6.18;;;23.20;42.40;;;;;;6268085;27;80335;-63
2023/02/24 04:55:11;;;;;;;9.80;6.40;;;23.20;42.30;;;;;;6271917;27;86268;-63
2023/02/24 04:58:11;;;;;;;9.98;6.40;;;23.20;42.10;;;;;;6273499;27;80620;-60
2023/02/24 05:01:12;;;;;;;12.18;6.85;;;23.20;42.00;;;;;;6279734;27;80577;-62
2023/02/24 05:04:13;;;;;;;10.43;6.65;;;23.20;41.90;;;;;;6278258;27;81894;-58
2023/02/24 05:07:14;;;;;;;10.52;6.95;;;23.20;41.80;;;;;;6274875;27;81102;-66
2023/02/24 05:10:17;;;;;;;9.88;7.15;;;23.20;41.80;;;;;;6276952;27;80415;-61
2023/02/24 05:13:18;;;;;;;10.50;7.13;;;23.20;41.70;;;;;;6256722;27;83840;-61
2023/02/24 05:16:19;;;;;;;8.07;5.53;;;23.20;41.60;;;;;;6259569;27;82226;-61
2023/02/24 05:22:39;;;;;;;11.02;6.53;;;23.30;42.30;;;;;;6261024;27;81121;-62
2023/02/24 05:25:41;;;;;;;7.93;5.47;;;23.20;42.50;;;;;;6265482;27;82094;-60
2023/02/24 05:28:42;;;;;;;10.35;5.53;;;23.30;42.80;;;;;;6267915;27;80613;-60
2023/02/24 05:31:42;;;;;;;7.88;5.00;;;23.30;43.10;;;;;;6285651;27;85704;-59
2023/02/24 05:34:43;;;;;;;10.48;5.30;;;23.30;43.40;;;;;;6290511;27;80828;-61
2023/02/24 05:37:43;;;;;;;7.55;5.32;;;23.30;43.40;;;;;;6292620;27;80337;-60
2023/02/24 05:40:46;;;;;;;13.20;5.40;;;23.30;43.90;;;;;;6296020;27;81116;-68
2023/02/24 05:43:47;;;;;;;10.85;5.45;;;23.30;43.80;;;;;;6292431;27;83420;-64
2023/02/24 05:46:48;;;;;;;12.07;5.40;;;23.30;43.80;;;;;;6282383;27;80669;-63
2023/02/24 05:49:51;;;;;;;9.50;5.15;;;23.30;43.70;;;;;;6283772;27;80732;-64
2023/02/24 05:52:51;;;;;;;9.48;5.15;;;23.30;43.50;;;;;;6289929;27;86947;-60
2023/02/24 05:55:52;;;;;;;12.85;4.93;;;23.30;43.60;;;;;;6290406;27;81642;-58
2023/02/24 05:59:00;;;;;;;9.18;4.97;;;23.30;44.30;;;;;;6287134;27;81544;-61
2023/02/24 06:02:05;;;;;;;6.97;4.47;;;23.30;44.50;;;;;;6291296;27;80433;-61
2023/02/24 06:05:07;;;;;;;8.85;4.80;;;23.30;44.50;;;;;;6291980;27;82051;-61
2023/02/24 06:08:10;;;;;;;8.50;4.72;;;23.30;44.00;;;;;;6283587;27;81477;-59
2023/02/24 06:11:11;;;;;;;8.57;5.15;;;23.30;44.50;;;;;;6276897;27;82175;-58
2023/02/24 06:14:11;;;;;;;8.15;4.68;;;23.30;44.40;;;;;;6281032;27;80927;-59
2023/02/24 06:17:13;;;;;;;15.57;4.68;;;23.30;44.60;;;;;;6290564;27;80395;-58
2023/02/24 06:20:14;;;;;;;9.60;4.82;;;23.30;44.40;;;;;;6286743;27;80570;-61
2023/02/24 06:23:16;;;;;;;8.48;4.80;;;23.30;44.20;;;;;;6298704;27;80411;-60
2023/02/24 06:26:18;;;;;;;9.57;4.55;;;23.30;43.80;;;;;;6285294;27;80541;-59
2023/02/24 06:29:19;;;;;;;10.60;5.05;;;23.30;43.50;;;;;;6298557;27;80432;-60
2023/02/24 06:32:20;;;;;;;12.25;4.78;;;23.30;43.40;;;;;;6298660;27;80278;-60
2023/02/24 06:35:20;;;;;;;7.03;4.57;;;23.20;43.20;;;;;;6293964;27;80385;-60
2023/02/24 06:38:21;;;;;;;8.75;5.03;;;23.20;43.00;;;;;;6299166;27;80643;-52
2023/02/24 06:41:21;;;;;;;6.90;4.60;;;23.20;43.00;;;;;;6284867;27;81571;-53
2023/02/24 06:44:23;;;;;;;7.70;4.80;;;23.20;42.90;;;;;;6263642;27;82217;-51
2023/02/24 06:47:23;;;;;;;6.45;4.30;;;23.20;42.90;;;;;;6290718;27;82083;-53
2023/02/24 06:50:24;;;;;;;10.65;4.57;;;23.10;42.80;;;;;;6251411;27;82073;-54
2023/02/24 06:53:25;;;;;;;8.43;4.45;;;23.10;42.80;;;;;;6196047;27;86242;-54
2023/02/24 06:56:26;;;;;;;13.77;4.50;;;23.10;42.70;;;;;;6179974;27;82941;-62
2023/02/24 06:59:27;;;;;;;11.20;4.50;;;23.10;42.80;;;;;;6286589;27;80455;-59
2023/02/24 07:02:38;;;;;;;10.00;4.40;;;23.10;44.00;;;;;;6288720;27;83220;-60
2023/02/24 07:05:38;;;;;;;8.00;4.72;;;23.00;43.50;;;;;;6286889;27;80359;-60
2023/02/24 07:08:40;;;;;;;7.60;4.82;;;23.00;43.50;;;;;;6289670;27;81144;-59
2023/02/24 07:11:41;;;;;;;9.05;4.20;;;23.00;43.70;;;;;;6285764;27;80607;-60
2023/02/24 07:14:41;;;;;;;6.22;4.57;;;23.00;43.90;;;;;;6292959;27;80418;-58
2023/02/24 07:17:42;;;;;;;8.35;4.13;;;22.90;43.80;;;;;;6248489;27;83717;-61
2023/02/24 07:20:44;;;;;;;6.07;4.13;;;22.90;44.00;;;;;;6284629;27;81175;-61
2023/02/24 07:23:48;;;;;;;5.35;4.10;;;22.90;44.10;;;;;;6286593;27;80812;-61
2023/02/24 07:26:50;;;;;;;9.63;5.07;;;22.90;44.30;;;;;;6284851;27;80856;-63
2023/02/24 07:29:51;;;;;;;5.97;4.07;;;22.90;44.60;;;;;;6273227;27;81635;-62
2023/02/24 07:32:54;;;;;;;7.53;4.38;;;22.90;44.60;;;;;;6256914;27;83163;-62
2023/02/24 07:35:55;;;;;;;6.93;4.15;;;22.90;44.70;;;;;;6264833;27;81583;-61
2023/02/24 07:38:57;;;;;;;6.65;4.80;;;22.90;45.00;;;;;;6269764;27;89348;-62
2023/02/24 07:41:58;;;;;;;6.97;4.00;;;22.80;45.10;;;;;;6245046;27;83043;-61
2023/02/24 07:44:58;;;;;;;9.25;4.93;;;22.80;45.10;;;;;;6269879;27;81684;-61
2023/02/24 07:48:00;;;;;;;7.95;4.60;;;22.80;45.30;;;;;;6272122;27;81181;-60
2023/02/24 07:51:01;;;;;;;7.43;4.90;;;22.80;45.40;;;;;;6294163;27;80416;-62
2023/02/24 07:54:02;;;;;;;7.10;4.65;;;22.80;45.50;;;;;;6294096;27;81034;-60
2023/02/24 07:57:02;;;;;;;10.00;4.88;;;22.80;45.70;;;;;;6294146;27;80598;-60
2023/02/24 08:00:15;;;;;;;7.78;4.65;;;22.80;45.90;;;;;;6293924;27;81176;-61
2023/02/24 08:03:16;;;;;;;9.05;4.60;;;22.80;45.70;;;;;;6291793;27;80915;-62
2023/02/24 08:06:25;;;;;;;7.10;4.18;;;22.80;46.00;;;;;;6286817;27;85058;-61
2023/02/24 08:12:46;;;;;;;5.18;3.95;;;22.80;46.10;;;;;;6290303;27;87283;-59
2023/02/24 08:15:55;;;;;;;6.50;4.35;;;22.80;46.40;;;;;;6289946;27;81976;-60
2023/02/24 08:18:56;;;;;;;8.00;4.90;;;22.80;46.20;;;;;;6263413;27;81225;-60
2023/02/24 08:22:05;;;;;;;7.68;5.15;;;22.80;46.30;;;;;;6290983;27;84596;-59
2023/02/24 08:25:06;;;;;;;7.55;3.83;;;22.80;46.50;;;;;;6285762;27;80056;-61
2023/02/24 08:28:10;;;;;;;6.43;4.30;;;22.80;46.00;;;;;;6290777;27;80564;-60
2023/02/24 08:31:11;;;;;;;6.68;4.38;;;22.80;46.20;;;;;;6277430;27;81054;-61
2023/02/24 08:34:14;;;;;;;5.53;4.38;;;22.80;46.10;;;;;;6269702;27;80335;-61
2023/02/24 08:37:15;;;;;;;8.07;4.38;;;22.80;46.00;;;;;;6261634;27;81877;-59
2023/02/24 08:40:36;;;;;;;7.63;5.43;;;22.80;45.40;;;;;;6273677;27;80698;-65
2023/02/24 08:43:37;;;;;;;8.70;6.53;;;22.60;45.70;;;;;;6272064;27;81586;-64
2023/02/24 08:46:38;;;;;;;12.18;7.80;;;21.90;45.40;;;;;;6273433;27;81820;-72
2023/02/24 08:49:39;;;;;;;11.52;7.25;;;21.30;45.50;;;;;;6256696;27;82939;-61
2023/02/24 08:52:39;;;;;;;10.52;7.10;;;21.10;45.80;;;;;;6252105;27;80821;-60
2023/02/24 08:55:41;;;;;;;10.15;7.18;;;21.10;45.80;;;;;;6265176;27;80327;-61
2023/02/24 08:58:48;;;;;;;9.98;6.60;;;20.80;45.50;;;;;;6242532;27;82197;-60
2023/02/24 09:01:53;;;;;;;8.27;6.20;;;20.20;46.40;;;;;;6265140;27;80732;-60
2023/02/24 09:04:53;;;;;;;8.20;5.97;;;20.30;46.30;;;;;;6262356;27;81011;-61
2023/02/24 09:07:54;;;;;;;12.30;7.70;;;20.20;46.50;;;;;;6262207;27;81709;-62
2023/02/24 09:10:55;;;;;;;9.07;6.07;;;20.10;46.10;;;;;;6262843;27;81046;-62
2023/02/24 09:13:57;;;;;;;7.75;5.13;;;19.60;46.90;;;;;;6260552;27;82435;-63
2023/02/24 09:18:06;;;;;;;6.18;4.90;;;19.60;47.20;;;;;;6235431;27;85949;-62
2023/02/24 09:23:46;;;;;;;8.85;5.20;;;19.50;46.90;;;;;;6241813;27;83141;-62
2023/02/24 09:26:46;;;;;;;8.95;4.97;;;19.50;46.80;;;;;;6263804;27;80770;-62
2023/02/24 09:29:50;;;;;;;7.35;4.85;;;19.70;46.70;;;;;;6266919;27;81555;-61
2023/02/24 09:32:59;;;;;;;7.28;4.82;;;19.50;47.30;;;;;;6259961;27;82001;-61
2023/02/24 09:36:09;;;;;;;6.18;4.90;;;19.70;46.60;;;;;;6293010;27;83252;-62
2023/02/24 09:39:09;;;;;;;6.68;5.30;;;19.70;46.60;;;;;;6274056;27;83527;-62
2023/02/24 09:45:12;;;;;;;5.85;4.35;;;20.10;46.30;;;;;;6287645;27;80357;-61
2023/02/24 09:48:12;;;;;;;5.85;4.28;;;20.40;46.10;;;;;;6287563;27;80637;-61
2023/02/24 09:51:20;;;;;;;5.63;4.32;;;20.60;45.80;;;;;;6293985;27;82789;-61
2023/02/24 09:54:23;;;;;;;5.47;4.10;;;20.80;45.70;;;;;;6286657;27;84701;-60
2023/02/24 09:57:25;;;;;;;9.30;4.70;;;20.90;45.30;;;;;;6288191;27;81301;-60
2023/02/24 10:00:32;;;;;;;7.55;5.30;;;21.00;45.20;;;;;;6273983;27;80450;-60
2023/02/24 10:03:41;;;;;;;6.25;4.93;;;21.10;45.10;;;;;;6282290;27;80546;-59
2023/02/24 10:06:42;;;;;;;7.32;4.75;;;21.10;45.00;;;;;;6294247;27;80532;-60
2023/02/24 10:09:43;;;;;;;7.65;5.05;;;21.20;44.70;;;;;;6293183;27;80476;-60
2023/02/24 10:12:43;;;;;;;10.38;5.60;;;21.20;44.70;;;;;;6293450;27;81454;-61
2023/02/24 10:15:57;;;;;;;8.20;5.10;;;21.30;44.60;;;;;;6289276;27;80607;-60
2023/02/24 10:19:10;;;;;;;6.85;4.97;;;21.40;44.60;;;;;;6289815;27;80577;-61
2023/02/24 10:22:21;;;;;;;6.90;5.35;;;21.40;44.30;;;;;;6290808;27;80500;-61
2023/02/24 10:25:22;;;;;;;8.07;4.97;;;21.50;44.50;;;;;;6274254;27;80786;-61
2023/02/24 10:28:23;;;;;;;10.48;5.72;;;21.50;44.20;;;;;;6287154;27;82795;-60
2023/02/24 10:31:23;;;;;;;7.95;5.05;;;21.50;44.00;;;;;;6292911;27;80913;-62
2023/02/24 10:34:43;;;;;;;6.88;4.47;;;21.60;44.20;;;;;;6288275;27;81274;-60
2023/02/24 10:37:44;;;;;;;7.40;5.05;;;21.60;44.40;;;;;;6289681;27;80861;-61
2023/02/24 10:40:45;;;;;;;8.45;5.63;;;21.70;44.10;;;;;;6296743;27;81649;-61
2023/02/24 10:43:46;;;;;;;10.68;6.10;;;21.70;44.00;;;;;;6298492;27;80830;-62
2023/02/24 10:46:46;;;;;;;11.93;7.10;;;21.70;44.20;;;;;;6289372;27;80946;-61
2023/02/24 10:49:56;;;;;;;8.50;6.13;;;21.70;44.10;;;;;;6285416;27;80824;-61
2023/02/24 11:02:44;;;;;;;9.73;6.20;;;21.90;44.00;;;;;;6288396;27;80895;-61
2023/02/24 11:19:01;;;;;;;10.00;6.53;;;21.80;43.70;;;;;;6289393;27;80545;-48
2023/02/24 11:22:02;;;;;;;10.15;6.35;;;21.90;43.90;;;;;;6281567;27;80922;-46
2023/02/24 11:25:03;;;;;;;9.48;6.50;;;21.90;43.90;;;;;;6285830;27;82101;-50
2023/02/24 11:28:04;;;;;;;8.85;6.65;;;22.00;44.30;;;;;;6289861;27;81826;-51
2023/02/24 11:31:05;;;;;;;8.55;5.65;;;22.10;44.50;;;;;;6297258;27;80693;-51
2023/02/24 11:34:06;;;;;;;11.82;6.20;;;22.20;44.80;;;;;;6278116;27;81132;-48
2023/02/24 11:37:07;;;;;;;9.05;5.68;;;22.30;44.70;;;;;;6291500;27;80598;-47
2023/02/24 11:40:08;;;;;;;11.05;5.70;;;22.50;44.60;;;;;;6284847;27;81266;-49
2023/02/24 11:43:09;;;;;;;9.02;6.10;;;22.60;44.60;;;;;;6286100;27;85561;-49
2023/02/24 11:46:09;;;;;;;9.90;6.28;;;22.60;44.40;;;;;;6289887;27;81018;-49
2023/02/24 11:49:10;;;;;;;7.20;5.55;;;22.60;44.10;;;;;;6289218;27;81011;-47
2023/02/24 11:52:10;;;;;;;10.05;6.50;;;22.60;43.90;;;;;;6297653;27;80355;-47
2023/02/24 11:55:11;;;;;;;8.65;5.50;;;22.60;43.90;;;;;;6286073;27;82417;-53
2023/02/24 11:58:12;;;;;;;8.45;5.95;;;22.50;43.80;;;;;;6287491;27;84457;-50
2023/02/24 12:01:14;;;;;;;9.02;5.90;;;22.60;43.90;;;;;;6286979;27;81208;-52
2023/02/24 12:04:15;;;;;;;13.68;5.90;;;22.60;44.00;;;;;;6285192;27;80203;-51
2023/02/24 12:07:15;;;;;;;13.15;6.97;;;22.70;43.90;;;;;;6293535;27;80386;-49
2023/02/24 12:10:16;;;;;;;9.93;6.05;;;22.80;44.00;;;;;;6290267;27;83164;-50
2023/02/24 12:13:16;;;;;;;10.45;6.85;;;22.80;44.00;;;;;;6286575;27;81159;-49
2023/02/24 12:16:17;;;;;;;12.18;6.65;;;22.90;43.90;;;;;;6285142;27;81624;-54
2023/02/24 12:19:18;;;;;;;9.55;6.25;;;22.80;44.30;;;;;;6281352;27;80310;-54
2023/02/24 12:22:19;;;;;;;9.68;6.20;;;22.80;43.60;;;;;;6279032;27;80495;-56
2023/02/24 12:25:19;;;;;;;9.18;6.13;;;22.70;43.90;;;;;;6286328;27;81138;-55
2023/02/24 12:28:20;;;;;;;9.65;6.93;;;22.60;43.50;;;;;;6295020;27;83880;-55
2023/02/24 12:31:20;;;;;;;9.70;6.30;;;22.60;43.60;;;;;;6300103;27;80504;-54
2023/02/24 12:34:21;;;;;;;9.40;5.82;;;22.50;43.50;;;;;;6271845;27;81582;-52
2023/02/24 12:37:21;;;;;;;9.30;5.60;;;22.50;43.60;;;;;;6291108;27;80519;-55
2023/02/24 12:40:22;;;;;;;8.68;5.80;;;22.40;43.60;;;;;;6289995;27;80549;-55
2023/02/24 12:43:24;;;;;;;8.98;6.22;;;22.40;43.40;;;;;;6298565;27;81198;-54
2023/02/24 12:46:25;;;;;;;12.60;6.82;;;22.30;43.50;;;;;;6288564;27;80490;-61
2023/02/24 12:49:26;;;;;;;12.63;7.05;;;22.30;43.40;;;;;;6281153;27;81419;-60
2023/02/24 12:52:26;;;;;;;7.70;5.75;;;22.20;43.60;;;;;;6282531;27;81665;-60
2023/02/24 12:55:27;;;;;;;10.50;6.03;;;22.30;43.60;;;;;;6293269;27;80988;-61
2023/02/24 12:58:27;;;;;;;9.27;5.72;;;22.30;43.50;;;;;;6285511;27;80377;-60
2023/02/24 13:01:28;;;;;;;8.15;6.10;;;22.20;43.40;;;;;;6292813;27;82514;-60
2023/02/24 13:04:29;;;;;;;9.20;5.88;;;22.20;43.50;;;;;;6285315;27;80462;-61
2023/02/24 13:07:29;;;;;;;9.73;6.32;;;22.20;43.40;;;;;;6280209;27;80871;-60
2023/02/24 13:10:30;;;;;;;8.52;5.57;;;22.00;43.40;;;;;;6297389;27;80745;-61
2023/02/24 13:13:30;;;;;;;9.45;5.72;;;22.00;43.40;;;;;;6287806;27;80402;-61
2023/02/24 13:16:31;;;;;;;7.15;4.97;;;21.90;43.70;;;;;;6300085;27;82814;-61
2023/02/24 13:19:31;;;;;;;25.25;9.55;;;21.90;44.40;;;;;;6267241;27;80922;-60
2023/02/24 13:22:32;;;;;;;45.72;13.77;;;22.00;45.50;;;;;;6281717;27;80851;-53
2023/02/24 13:25:33;;;;;;;64.13;17.55;;;22.00;45.20;;;;;;6279983;27;84699;-55
2023/02/24 13:28:35;;;;;;;47.13;15.65;;;22.10;45.50;;;;;;6282766;27;83712;-54
2023/02/24 13:31:36;;;;;;;47.28;15.88;;;22.20;45.50;;;;;;6265026;27;85861;-54
2023/02/24 13:34:36;;;;;;;42.00;13.90;;;22.30;45.40;;;;;;6267576;27;90774;-56
2023/02/24 13:37:37;;;;;;;37.28;13.50;;;22.30;45.10;;;;;;6269862;27;83867;-55
2023/02/24 13:40:37;;;;;;;34.88;12.15;;;22.40;44.80;;;;;;6267514;27;82903;-56
2023/02/24 13:43:38;;;;;;;29.70;10.55;;;22.40;44.50;;;;;;6260896;27;83003;-55
2023/02/24 13:46:38;;;;;;;35.78;11.65;;;22.50;44.30;;;;;;6268523;27;83518;-54
2023/02/24 13:49:39;;;;;;;23.45;10.02;;;22.50;44.00;;;;;;6265239;27;84781;-51
2023/02/24 13:52:39;;;;;;;16.90;7.90;;;22.40;43.60;;;;;;6242031;27;84687;-54
2023/02/24 13:55:40;;;;;;;15.55;7.30;;;22.50;43.60;;;;;;6257115;27;83399;-53
2023/02/24 13:58:40;;;;;;;16.25;7.00;;;22.50;43.60;;;;;;6268443;27;80561;-51
2023/02/24 14:01:41;;;;;;;11.65;6.28;;;22.40;43.20;;;;;;6254882;27;81974;-54
2023/02/24 14:04:41;;;;;;;11.57;6.15;;;22.30;43.20;;;;;;6255776;27;82918;-53
2023/02/24 14:07:42;;;;;;;11.68;7.05;;;22.30;43.30;;;;;;6267592;27;84299;-55
2023/02/24 14:10:43;;;;;;;10.18;5.95;;;22.30;43.20;;;;;;6271967;27;81119;-65
2023/02/24 14:13:43;;;;;;;10.23;6.03;;;22.20;42.80;;;;;;6260664;27;82446;-58
2023/02/24 14:16:46;;;;;;;9.55;5.85;;;22.10;43.60;;;;;;6239926;27;81656;-59
2023/02/24 14:19:47;;;;;;;9.48;4.65;;;22.20;43.50;;;;;;6264859;27;84505;-58
2023/02/24 14:22:48;;;;;;;15.75;5.13;;;22.30;43.80;;;;;;6266668;27;81581;-74
2023/02/24 14:25:48;;;;;;;114.05;52.08;;;22.40;43.70;;;;;;6267555;27;83664;-59
2023/02/24 14:28:48;;;;;;;172.27;81.88;;;22.50;43.60;;;;;;6270291;27;82716;-55
2023/02/24 14:31:49;;;;;;;217.35;100.55;;;22.50;43.90;;;;;;6281799;27;85681;-57
2023/02/24 14:34:50;;;;;;;265.55;122.25;;;22.60;44.40;;;;;;6282464;27;85271;-56
2023/02/24 14:37:50;;;;;;;318.50;151.93;;;22.70;44.50;;;;;;6279328;27;86885;-56
2023/02/24 14:40:51;;;;;;;320.88;147.52;;;22.70;44.50;;;;;;6270429;27;85880;-58
2023/02/24 14:43:51;;;;;;;413.40;187.77;;;22.80;45.70;;;;;;6277420;27;85789;-58
2023/02/24 14:46:52;;;;;;;330.52;147.88;;;22.80;45.20;;;;;;6286327;27;85986;-56
2023/02/24 14:49:52;;;;;;;298.42;138.82;;;22.80;45.50;;;;;;6284185;27;85844;-56
2023/02/24 14:52:53;;;;;;;287.40;128.27;;;22.80;45.10;;;;;;6278330;27;85413;-59
2023/02/24 14:55:54;;;;;;;250.98;117.90;;;22.80;45.10;;;;;;6289149;27;85863;-59
2023/02/24 14:58:55;;;;;;;228.18;102.53;;;22.90;44.80;;;;;;6267433;27;88829;-55
2023/02/24 15:01:55;;;;;;;277.02;126.82;;;22.90;44.70;;;;;;6283555;27;86013;-58
2023/02/24 15:04:56;;;;;;;273.02;130.32;;;22.90;44.90;;;;;;6284265;27;86285;-60
2023/02/24 15:07:57;;;;;;;287.45;135.55;;;22.80;45.00;;;;;;6284244;27;87077;-59
2023/02/24 15:10:57;;;;;;;318.15;147.40;;;22.90;45.10;;;;;;6263143;27;89890;-60
2023/02/24 15:13:58;;;;;;;365.98;168.70;;;22.90;45.80;;;;;;6285615;27;85766;-58
2023/02/24 15:16:59;;;;;;;494.17;229.10;;;22.90;45.30;;;;;;6269765;27;87651;-59
2023/02/24 15:19:59;;;;;;;471.13;214.52;;;22.90;45.20;;;;;;6279144;27;85950;-57
2023/02/24 15:23:00;;;;;;;405.52;179.98;;;22.90;45.30;;;;;;6291455;27;85737;-59
2023/02/24 15:26:01;;;;;;;362.33;162.68;;;23.00;45.90;;;;;;6265209;27;86938;-59
2023/02/24 15:29:01;;;;;;;328.60;144.55;;;23.00;45.80;;;;;;6279847;27;88781;-57
2023/02/24 15:32:02;;;;;;;304.05;134.35;;;23.00;45.70;;;;;;6262958;27;85279;-55
2023/02/24 15:35:03;;;;;;;270.17;122.65;;;23.00;45.60;;;;;;6266315;27;85902;-52
2023/02/24 15:38:03;;;;;;;251.52;113.78;;;23.00;45.50;;;;;;6260080;27;86460;-54
2023/02/24 15:41:04;;;;;;;232.45;109.40;;;23.00;45.40;;;;;;6268113;27;85799;-56
2023/02/24 15:44:05;;;;;;;209.60;102.20;;;23.00;45.30;;;;;;6245154;27;91406;-56
2023/02/24 15:47:05;;;;;;;205.85;95.70;;;23.00;45.00;;;;;;6245582;27;87014;-57
2023/02/24 15:50:06;;;;;;;202.57;95.22;;;23.00;45.00;;;;;;6267657;27;88603;-57
2023/02/24 15:53:11;;;;;;;191.18;88.07;;;23.10;44.80;;;;;;6272198;27;83490;-55
2023/02/24 15:56:12;;;;;;;192.40;84.88;;;23.10;44.70;;;;;;6263844;27;82852;-55
2023/02/24 15:59:12;;;;;;;187.82;81.28;;;23.10;45.70;;;;;;6240553;27;84775;-56
2023/02/24 16:02:14;;;;;;;160.85;76.55;;;23.10;45.30;;;;;;6251722;27;84069;-59
2023/02/24 16:05:15;;;;;;;162.82;73.32;;;23.10;45.30;;;;;;6266131;27;83591;-58
2023/02/24 16:08:15;;;;;;;149.57;69.20;;;23.10;45.80;;;;;;6266530;27;84525;-62
2023/02/24 16:11:16;;;;;;;141.38;64.80;;;23.10;45.50;;;;;;6260319;27;83847;-61